createdAt,value
2023-05-26T00:00:50.000Z,5.953861192570889
2023-05-26T00:01:52.000Z,6.00249266862172
2023-05-26T00:02:55.000Z,6.031671554252219
2023-05-26T00:03:57.000Z,6.021945259042052
2023-05-26T00:04:59.000Z,5.992766373411554
2023-05-26T00:06:02.000Z,6.012218963831886
2023-05-26T00:07:04.000Z,5.9830400782013875
2023-05-26T00:08:06.000Z,6.041397849462385
2023-05-26T00:09:09.000Z,6.041397849462385
2023-05-26T00:10:11.000Z,6.021945259042052
2023-05-26T00:11:13.000Z,5.953861192570889
2023-05-26T00:12:16.000Z,6.00249266862172
2023-05-26T00:13:18.000Z,5.992766373411554
2023-05-26T00:14:20.000Z,6.041397849462385
2023-05-26T00:15:23.000Z,6.021945259042052
2023-05-26T00:16:25.000Z,6.041397849462385
2023-05-26T00:17:27.000Z,5.953861192570889
2023-05-26T00:18:30.000Z,5.9830400782013875
2023-05-26T00:19:32.000Z,5.992766373411554
2023-05-26T00:20:34.000Z,5.963587487781055
2023-05-26T00:21:37.000Z,5.992766373411554
2023-05-26T00:22:39.000Z,6.00249266862172
2023-05-26T00:23:41.000Z,6.041397849462385
2023-05-26T00:24:44.000Z,6.012218963831886
2023-05-26T00:25:46.000Z,6.00249266862172
2023-05-26T00:26:49.000Z,5.9830400782013875
2023-05-26T00:27:51.000Z,6.012218963831886
2023-05-26T00:28:53.000Z,5.992766373411554
2023-05-26T00:29:56.000Z,6.021945259042052
2023-05-26T00:30:58.000Z,6.090029325513216
2023-05-26T00:32:00.000Z,6.109481915933548
2023-05-26T00:33:02.000Z,6.090029325513216
2023-05-26T00:34:05.000Z,6.1192082111437145
2023-05-26T00:35:07.000Z,6.158113391984379
2023-05-26T00:36:09.000Z,6.138660801564047
2023-05-26T00:37:12.000Z,6.138660801564047
2023-05-26T00:38:14.000Z,6.109481915933548
2023-05-26T00:39:16.000Z,6.158113391984379
2023-05-26T00:40:18.000Z,6.109481915933548
2023-05-26T00:41:21.000Z,6.138660801564047
2023-05-26T00:42:24.000Z,6.138660801564047
2023-05-26T00:43:26.000Z,6.148387096774213
2023-05-26T00:44:28.000Z,6.099755620723382
2023-05-26T00:45:30.000Z,6.090029325513216
2023-05-26T00:46:33.000Z,6.00249266862172
2023-05-26T00:47:35.000Z,6.041397849462385
2023-05-26T00:48:37.000Z,6.099755620723382
2023-05-26T00:49:40.000Z,6.099755620723382
2023-05-26T00:50:42.000Z,6.128934506353881
2023-05-26T00:51:44.000Z,6.109481915933548
2023-05-26T00:52:46.000Z,6.1192082111437145
2023-05-26T00:53:49.000Z,6.128934506353881
2023-05-26T00:54:51.000Z,6.08030303030305
2023-05-26T00:55:54.000Z,6.1192082111437145
2023-05-26T00:56:56.000Z,6.177565982404712
2023-05-26T00:57:58.000Z,6.167839687194546
2023-05-26T00:59:01.000Z,6.158113391984379
2023-05-26T01:00:03.000Z,6.158113391984379
2023-05-26T01:01:06.000Z,6.109481915933548
2023-05-26T01:02:08.000Z,6.158113391984379
2023-05-26T01:03:10.000Z,6.167839687194546
2023-05-26T01:04:12.000Z,6.177565982404712
2023-05-26T01:05:15.000Z,6.187292277614878
2023-05-26T01:06:17.000Z,6.187292277614878
2023-05-26T01:07:19.000Z,6.148387096774213
2023-05-26T01:08:22.000Z,6.216471163245377
2023-05-26T01:09:24.000Z,6.216471163245377
2023-05-26T01:10:26.000Z,6.235923753665709
2023-05-26T01:11:29.000Z,6.177565982404712
2023-05-26T01:12:31.000Z,6.177565982404712
2023-05-26T01:13:33.000Z,6.187292277614878
2023-05-26T01:14:36.000Z,6.20674486803521
2023-05-26T01:15:38.000Z,6.08030303030305
2023-05-26T01:16:40.000Z,6.187292277614878
2023-05-26T01:17:43.000Z,6.187292277614878
2023-05-26T01:18:45.000Z,6.187292277614878
2023-05-26T01:19:47.000Z,6.187292277614878
2023-05-26T01:20:50.000Z,6.138660801564047
2023-05-26T01:21:52.000Z,6.138660801564047
2023-05-26T01:22:55.000Z,6.138660801564047
2023-05-26T01:23:57.000Z,6.197018572825044
2023-05-26T01:24:59.000Z,6.2553763440860415
2023-05-26T01:26:01.000Z,6.245650048875875
2023-05-26T01:27:04.000Z,6.245650048875875
2023-05-26T01:28:06.000Z,6.197018572825044
2023-05-26T01:29:08.000Z,6.265102639296208
2023-05-26T01:30:11.000Z,6.313734115347039
2023-05-26T01:31:13.000Z,6.28455522971654
2023-05-26T01:32:15.000Z,6.265102639296208
2023-05-26T01:33:18.000Z,6.197018572825044
2023-05-26T01:34:20.000Z,6.265102639296208
2023-05-26T01:35:23.000Z,6.235923753665709
2023-05-26T01:36:25.000Z,6.294281524926706
2023-05-26T01:37:27.000Z,6.3040078201368726
2023-05-26T01:38:29.000Z,6.138660801564047
2023-05-26T01:39:32.000Z,6.235923753665709
2023-05-26T01:40:34.000Z,6.167839687194546
2023-05-26T01:41:36.000Z,6.226197458455543
2023-05-26T01:42:39.000Z,6.226197458455543
2023-05-26T01:43:41.000Z,6.226197458455543
2023-05-26T01:44:43.000Z,6.226197458455543
2023-05-26T01:45:46.000Z,6.226197458455543
2023-05-26T01:46:48.000Z,6.158113391984379
2023-05-26T01:47:50.000Z,6.20674486803521
2023-05-26T01:48:53.000Z,6.245650048875875
2023-05-26T01:49:55.000Z,6.226197458455543
2023-05-26T01:50:57.000Z,6.235923753665709
2023-05-26T01:52:00.000Z,6.187292277614878
2023-05-26T01:53:02.000Z,6.294281524926706
2023-05-26T01:54:04.000Z,6.342913000977537
2023-05-26T01:55:07.000Z,6.372091886608036
2023-05-26T01:56:09.000Z,6.294281524926706
2023-05-26T01:57:11.000Z,6.372091886608036
2023-05-26T01:58:13.000Z,6.313734115347039
2023-05-26T01:59:16.000Z,6.323460410557205
2023-05-26T02:00:18.000Z,6.352639296187704
2023-05-26T02:01:21.000Z,6.36236559139787
2023-05-26T02:02:23.000Z,6.372091886608036
2023-05-26T02:03:25.000Z,6.36236559139787
2023-05-26T02:04:28.000Z,6.381818181818202
2023-05-26T02:05:30.000Z,6.372091886608036
2023-05-26T02:06:32.000Z,6.226197458455543
2023-05-26T02:07:35.000Z,6.265102639296208
2023-05-26T02:08:37.000Z,6.28455522971654
2023-05-26T02:09:39.000Z,6.28455522971654
2023-05-26T02:10:42.000Z,6.274828934506374
2023-05-26T02:11:44.000Z,6.274828934506374
2023-05-26T02:12:46.000Z,6.265102639296208
2023-05-26T02:13:49.000Z,6.138660801564047
2023-05-26T02:14:51.000Z,6.265102639296208
2023-05-26T02:15:53.000Z,6.265102639296208
2023-05-26T02:16:55.000Z,6.28455522971654
2023-05-26T02:17:58.000Z,6.274828934506374
2023-05-26T02:19:00.000Z,6.274828934506374
2023-05-26T02:20:02.000Z,6.323460410557205
2023-05-26T02:21:05.000Z,6.245650048875875
2023-05-26T02:22:07.000Z,6.235923753665709
2023-05-26T02:23:10.000Z,6.294281524926706
2023-05-26T02:24:12.000Z,6.294281524926706
2023-05-26T02:25:14.000Z,6.3040078201368726
2023-05-26T02:26:17.000Z,6.3040078201368726
2023-05-26T02:27:19.000Z,6.3040078201368726
2023-05-26T02:28:21.000Z,6.313734115347039
2023-05-26T02:29:24.000Z,6.3040078201368726
2023-05-26T02:30:26.000Z,6.235923753665709
2023-05-26T02:31:28.000Z,6.28455522971654
2023-05-26T02:32:31.000Z,6.274828934506374
2023-05-26T02:33:33.000Z,6.20674486803521
2023-05-26T02:34:35.000Z,6.197018572825044
2023-05-26T02:35:38.000Z,6.20674486803521
2023-05-26T02:36:40.000Z,6.138660801564047
2023-05-26T02:37:42.000Z,6.148387096774213
2023-05-26T02:38:45.000Z,6.177565982404712
2023-05-26T02:39:47.000Z,6.187292277614878
2023-05-26T02:40:49.000Z,6.177565982404712
2023-05-26T02:41:52.000Z,6.167839687194546
2023-05-26T02:42:54.000Z,6.1192082111437145
2023-05-26T02:43:56.000Z,6.167839687194546
2023-05-26T02:44:58.000Z,6.128934506353881
2023-05-26T02:46:01.000Z,6.109481915933548
2023-05-26T02:47:03.000Z,6.177565982404712
2023-05-26T02:48:05.000Z,6.245650048875875
2023-05-26T02:49:08.000Z,6.177565982404712
2023-05-26T02:50:10.000Z,6.265102639296208
2023-05-26T02:51:13.000Z,6.245650048875875
2023-05-26T02:52:15.000Z,6.226197458455543
2023-05-26T02:53:17.000Z,6.187292277614878
2023-05-26T02:54:20.000Z,6.197018572825044
2023-05-26T02:55:22.000Z,6.167839687194546
2023-05-26T02:56:24.000Z,6.187292277614878
2023-05-26T02:57:27.000Z,6.245650048875875
2023-05-26T02:58:29.000Z,6.2553763440860415
2023-05-26T02:59:31.000Z,6.265102639296208
2023-05-26T03:00:34.000Z,6.20674486803521
2023-05-26T03:01:36.000Z,6.216471163245377
2023-05-26T03:02:38.000Z,6.20674486803521
2023-05-26T03:03:40.000Z,6.167839687194546
2023-05-26T03:04:43.000Z,6.235923753665709
2023-05-26T03:05:45.000Z,6.2553763440860415
2023-05-26T03:06:48.000Z,6.265102639296208
2023-05-26T03:07:50.000Z,6.274828934506374
2023-05-26T03:08:52.000Z,6.265102639296208
2023-05-26T03:09:54.000Z,6.226197458455543
2023-05-26T03:10:57.000Z,6.226197458455543
2023-05-26T03:11:59.000Z,6.158113391984379
2023-05-26T03:13:01.000Z,6.226197458455543
2023-05-26T03:14:04.000Z,6.226197458455543
2023-05-26T03:15:06.000Z,6.2553763440860415
2023-05-26T03:16:08.000Z,6.323460410557205
2023-05-26T03:17:11.000Z,6.333186705767371
2023-05-26T03:18:13.000Z,6.274828934506374
2023-05-26T03:19:15.000Z,6.36236559139787
2023-05-26T03:20:18.000Z,6.313734115347039
2023-05-26T03:21:20.000Z,6.3915444770283685
2023-05-26T03:22:22.000Z,6.372091886608036
2023-05-26T03:23:25.000Z,6.381818181818202
2023-05-26T03:24:27.000Z,6.430449657869033
2023-05-26T03:25:29.000Z,6.410997067448701
2023-05-26T03:26:31.000Z,6.342913000977537
2023-05-26T03:27:34.000Z,6.430449657869033
2023-05-26T03:28:36.000Z,6.36236559139787
2023-05-26T03:29:38.000Z,6.28455522971654
2023-05-26T03:30:41.000Z,6.372091886608036
2023-05-26T03:31:43.000Z,6.3040078201368726
2023-05-26T03:32:45.000Z,6.381818181818202
2023-05-26T03:33:48.000Z,6.352639296187704
2023-05-26T03:34:50.000Z,6.3915444770283685
2023-05-26T03:35:52.000Z,6.36236559139787
2023-05-26T03:36:55.000Z,6.3915444770283685
2023-05-26T03:37:57.000Z,6.36236559139787
2023-05-26T03:39:00.000Z,6.36236559139787
2023-05-26T03:40:02.000Z,6.294281524926706
2023-05-26T03:41:04.000Z,6.372091886608036
2023-05-26T03:42:06.000Z,6.449902248289366
2023-05-26T03:43:09.000Z,6.449902248289366
2023-05-26T03:44:11.000Z,6.449902248289366
2023-05-26T03:45:13.000Z,6.469354838709698
2023-05-26T03:46:16.000Z,6.372091886608036
2023-05-26T03:47:18.000Z,6.3915444770283685
2023-05-26T03:48:20.000Z,6.5277126099706955
2023-05-26T03:49:23.000Z,6.517986314760529
2023-05-26T03:50:25.000Z,6.517986314760529
2023-05-26T03:51:27.000Z,6.517986314760529
2023-05-26T03:52:30.000Z,6.488807429130031
2023-05-26T03:53:32.000Z,6.410997067448701
2023-05-26T03:54:34.000Z,6.498533724340197
2023-05-26T03:55:36.000Z,6.498533724340197
2023-05-26T03:56:39.000Z,6.430449657869033
2023-05-26T03:57:41.000Z,6.410997067448701
2023-05-26T03:58:43.000Z,6.3915444770283685
2023-05-26T03:59:46.000Z,6.36236559139787
2023-05-26T04:00:48.000Z,6.372091886608036
2023-05-26T04:01:50.000Z,6.333186705767371
2023-05-26T04:02:53.000Z,6.265102639296208
2023-05-26T04:03:55.000Z,6.265102639296208
2023-05-26T04:04:57.000Z,6.274828934506374
2023-05-26T04:06:00.000Z,6.342913000977537
2023-05-26T04:07:02.000Z,6.323460410557205
2023-05-26T04:08:04.000Z,6.28455522971654
2023-05-26T04:09:06.000Z,6.245650048875875
2023-05-26T04:10:09.000Z,6.274828934506374
2023-05-26T04:11:11.000Z,6.20674486803521
2023-05-26T04:12:13.000Z,6.235923753665709
2023-05-26T04:13:16.000Z,6.2553763440860415
2023-05-26T04:14:18.000Z,6.245650048875875
2023-05-26T04:15:20.000Z,6.226197458455543
2023-05-26T04:16:23.000Z,6.265102639296208
2023-05-26T04:17:25.000Z,6.313734115347039
2023-05-26T04:18:27.000Z,6.333186705767371
2023-05-26T04:19:30.000Z,6.323460410557205
2023-05-26T04:20:32.000Z,6.235923753665709
2023-05-26T04:21:34.000Z,6.265102639296208
2023-05-26T04:22:37.000Z,6.216471163245377
2023-05-26T04:23:39.000Z,6.197018572825044
2023-05-26T04:24:41.000Z,6.20674486803521
2023-05-26T04:25:44.000Z,6.20674486803521
2023-05-26T04:26:46.000Z,6.20674486803521
2023-05-26T04:27:48.000Z,6.197018572825044
2023-05-26T04:28:51.000Z,6.128934506353881
2023-05-26T04:29:53.000Z,6.167839687194546
2023-05-26T04:30:56.000Z,6.109481915933548
2023-05-26T04:31:58.000Z,6.109481915933548
2023-05-26T04:33:00.000Z,6.138660801564047
2023-05-26T04:34:03.000Z,6.090029325513216
2023-05-26T04:35:05.000Z,6.128934506353881
2023-05-26T04:36:08.000Z,6.148387096774213
2023-05-26T04:37:10.000Z,6.197018572825044
2023-05-26T04:38:12.000Z,6.197018572825044
2023-05-26T04:39:14.000Z,6.187292277614878
2023-05-26T04:40:17.000Z,6.090029325513216
2023-05-26T04:41:19.000Z,6.167839687194546
2023-05-26T04:42:21.000Z,6.226197458455543
2023-05-26T04:43:24.000Z,6.235923753665709
2023-05-26T04:44:26.000Z,6.226197458455543
2023-05-26T04:45:28.000Z,6.265102639296208
2023-05-26T04:46:30.000Z,6.294281524926706
2023-05-26T04:47:33.000Z,6.2553763440860415
2023-05-26T04:48:35.000Z,6.235923753665709
2023-05-26T04:49:37.000Z,6.20674486803521
2023-05-26T04:50:40.000Z,6.197018572825044
2023-05-26T04:51:42.000Z,6.128934506353881
2023-05-26T04:52:44.000Z,6.197018572825044
2023-05-26T04:53:47.000Z,6.167839687194546
2023-05-26T04:54:49.000Z,6.158113391984379
2023-05-26T04:55:51.000Z,6.099755620723382
2023-05-26T04:56:54.000Z,6.138660801564047
2023-05-26T04:57:56.000Z,6.090029325513216
2023-05-26T04:58:58.000Z,6.138660801564047
2023-05-26T05:00:00.000Z,6.128934506353881
2023-05-26T05:01:03.000Z,6.1192082111437145
2023-05-26T05:02:05.000Z,6.148387096774213
2023-05-26T05:03:07.000Z,6.1192082111437145
2023-05-26T05:04:10.000Z,6.099755620723382
2023-05-26T05:05:12.000Z,6.138660801564047
2023-05-26T05:06:15.000Z,6.128934506353881
2023-05-26T05:07:17.000Z,6.177565982404712
2023-05-26T05:08:19.000Z,6.20674486803521
2023-05-26T05:09:21.000Z,6.1192082111437145
2023-05-26T05:10:24.000Z,6.197018572825044
2023-05-26T05:11:26.000Z,6.20674486803521
2023-05-26T05:12:28.000Z,6.216471163245377
2023-05-26T05:13:31.000Z,6.226197458455543
2023-05-26T05:14:33.000Z,6.2553763440860415
2023-05-26T05:15:35.000Z,6.167839687194546
2023-05-26T05:16:38.000Z,6.158113391984379
2023-05-26T05:17:40.000Z,6.197018572825044
2023-05-26T05:18:42.000Z,6.138660801564047
2023-05-26T05:19:45.000Z,6.128934506353881
2023-05-26T05:20:47.000Z,6.1192082111437145
2023-05-26T05:21:49.000Z,6.109481915933548
2023-05-26T05:22:52.000Z,6.109481915933548
2023-05-26T05:23:54.000Z,6.109481915933548
2023-05-26T05:24:56.000Z,6.099755620723382
2023-05-26T05:25:59.000Z,6.060850439882717
2023-05-26T05:27:01.000Z,6.031671554252219
2023-05-26T05:28:03.000Z,6.109481915933548
2023-05-26T05:29:06.000Z,6.070576735092883
2023-05-26T05:30:08.000Z,6.099755620723382
2023-05-26T05:31:10.000Z,6.08030303030305
2023-05-26T05:32:13.000Z,6.158113391984379
2023-05-26T05:33:15.000Z,6.090029325513216
2023-05-26T05:34:17.000Z,6.090029325513216
2023-05-26T05:35:19.000Z,6.148387096774213
2023-05-26T05:36:22.000Z,6.138660801564047
2023-05-26T05:37:24.000Z,6.128934506353881
2023-05-26T05:38:26.000Z,6.128934506353881
2023-05-26T05:39:29.000Z,6.138660801564047
2023-05-26T05:40:31.000Z,6.128934506353881
2023-05-26T05:41:34.000Z,6.158113391984379
2023-05-26T05:42:36.000Z,6.109481915933548
2023-05-26T05:43:38.000Z,6.128934506353881
2023-05-26T05:44:41.000Z,6.1192082111437145
2023-05-26T05:45:43.000Z,6.109481915933548
2023-05-26T05:46:45.000Z,6.1192082111437145
2023-05-26T05:47:48.000Z,6.128934506353881
2023-05-26T05:48:50.000Z,6.1192082111437145
2023-05-26T05:49:52.000Z,6.1192082111437145
2023-05-26T05:50:54.000Z,6.109481915933548
2023-05-26T05:51:57.000Z,6.099755620723382
2023-05-26T05:52:59.000Z,6.070576735092883
2023-05-26T05:54:02.000Z,6.090029325513216
2023-05-26T05:55:04.000Z,6.090029325513216
2023-05-26T05:56:06.000Z,6.051124144672551
2023-05-26T05:57:08.000Z,6.099755620723382
2023-05-26T05:58:11.000Z,6.099755620723382
2023-05-26T05:59:13.000Z,6.187292277614878
2023-05-26T06:00:16.000Z,6.177565982404712
2023-05-26T06:01:18.000Z,6.128934506353881
2023-05-26T06:02:20.000Z,6.090029325513216
2023-05-26T06:03:22.000Z,6.128934506353881
2023-05-26T06:04:25.000Z,6.128934506353881
2023-05-26T06:05:27.000Z,6.128934506353881
2023-05-26T06:06:30.000Z,6.138660801564047
2023-05-26T06:07:32.000Z,6.1192082111437145
2023-05-26T06:08:34.000Z,6.148387096774213
2023-05-26T06:09:37.000Z,6.187292277614878
2023-05-26T06:10:39.000Z,6.138660801564047
2023-05-26T06:11:41.000Z,6.128934506353881
2023-05-26T06:12:44.000Z,6.109481915933548
2023-05-26T06:13:46.000Z,6.041397849462385
2023-05-26T06:14:48.000Z,6.090029325513216
2023-05-26T06:15:50.000Z,6.090029325513216
2023-05-26T06:16:53.000Z,6.070576735092883
2023-05-26T06:17:55.000Z,6.08030303030305
2023-05-26T06:18:57.000Z,6.051124144672551
2023-05-26T06:20:00.000Z,6.012218963831886
2023-05-26T06:21:02.000Z,6.070576735092883
2023-05-26T06:22:04.000Z,6.041397849462385
2023-05-26T06:23:06.000Z,6.051124144672551
2023-05-26T06:24:09.000Z,6.041397849462385
2023-05-26T06:25:11.000Z,6.060850439882717
2023-05-26T06:26:13.000Z,6.031671554252219
2023-05-26T06:27:16.000Z,6.070576735092883
2023-05-26T06:28:18.000Z,6.070576735092883
2023-05-26T06:29:20.000Z,6.041397849462385
2023-05-26T06:30:23.000Z,6.070576735092883
2023-05-26T06:31:25.000Z,6.021945259042052
2023-05-26T06:32:27.000Z,6.099755620723382
2023-05-26T06:33:30.000Z,6.099755620723382
2023-05-26T06:34:32.000Z,6.090029325513216
2023-05-26T06:35:34.000Z,6.090029325513216
2023-05-26T06:36:37.000Z,6.070576735092883
2023-05-26T06:37:39.000Z,6.099755620723382
2023-05-26T06:38:41.000Z,6.070576735092883
2023-05-26T06:39:44.000Z,6.060850439882717
2023-05-26T06:40:46.000Z,6.041397849462385
2023-05-26T06:41:48.000Z,6.051124144672551
2023-05-26T06:42:50.000Z,6.041397849462385
2023-05-26T06:43:53.000Z,6.051124144672551
2023-05-26T06:44:55.000Z,6.051124144672551
2023-05-26T06:45:57.000Z,6.041397849462385
2023-05-26T06:47:00.000Z,6.041397849462385
2023-05-26T06:48:02.000Z,5.9830400782013875
2023-05-26T06:49:04.000Z,5.944134897360723
2023-05-26T06:50:07.000Z,6.00249266862172
2023-05-26T06:51:09.000Z,6.031671554252219
2023-05-26T06:52:11.000Z,6.031671554252219
2023-05-26T06:53:14.000Z,6.021945259042052
2023-05-26T06:54:16.000Z,6.021945259042052
2023-05-26T06:55:18.000Z,6.090029325513216
2023-05-26T06:56:21.000Z,6.099755620723382
2023-05-26T06:57:23.000Z,6.090029325513216
2023-05-26T06:58:25.000Z,6.08030303030305
2023-05-26T06:59:28.000Z,6.08030303030305
2023-05-26T07:00:30.000Z,5.973313782991221
2023-05-26T07:01:32.000Z,6.08030303030305
2023-05-26T07:02:34.000Z,6.090029325513216
2023-05-26T07:03:37.000Z,6.099755620723382
2023-05-26T07:04:39.000Z,6.109481915933548
2023-05-26T07:05:41.000Z,6.099755620723382
2023-05-26T07:06:44.000Z,6.099755620723382
2023-05-26T07:07:46.000Z,6.099755620723382
2023-05-26T07:08:48.000Z,6.021945259042052
2023-05-26T07:09:50.000Z,6.031671554252219
2023-05-26T07:10:53.000Z,6.041397849462385
2023-05-26T07:11:55.000Z,5.973313782991221
2023-05-26T07:12:57.000Z,6.00249266862172
2023-05-26T07:14:00.000Z,5.953861192570889
2023-05-26T07:15:02.000Z,6.021945259042052
2023-05-26T07:16:04.000Z,5.992766373411554
2023-05-26T07:17:07.000Z,5.992766373411554
2023-05-26T07:18:09.000Z,5.944134897360723
2023-05-26T07:19:11.000Z,5.953861192570889
2023-05-26T07:20:13.000Z,5.992766373411554
2023-05-26T07:21:16.000Z,6.00249266862172
2023-05-26T07:22:18.000Z,5.9830400782013875
2023-05-26T07:23:20.000Z,5.934408602150556
2023-05-26T07:24:23.000Z,5.9830400782013875
2023-05-26T07:25:25.000Z,6.031671554252219
2023-05-26T07:26:27.000Z,6.031671554252219
2023-05-26T07:27:30.000Z,6.021945259042052
2023-05-26T07:28:32.000Z,6.012218963831886
2023-05-26T07:29:34.000Z,5.973313782991221
2023-05-26T07:30:36.000Z,6.021945259042052
2023-05-26T07:31:39.000Z,6.031671554252219
2023-05-26T07:32:41.000Z,6.051124144672551
2023-05-26T07:33:43.000Z,6.021945259042052
2023-05-26T07:34:46.000Z,6.021945259042052
2023-05-26T07:35:48.000Z,6.090029325513216
2023-05-26T07:36:50.000Z,6.031671554252219
2023-05-26T07:37:53.000Z,6.041397849462385
2023-05-26T07:38:55.000Z,6.041397849462385
2023-05-26T07:39:57.000Z,6.041397849462385
2023-05-26T07:40:59.000Z,5.992766373411554
2023-05-26T07:42:02.000Z,6.051124144672551
2023-05-26T07:43:05.000Z,6.021945259042052
2023-05-26T07:44:07.000Z,6.00249266862172
2023-05-26T07:45:10.000Z,6.041397849462385
2023-05-26T07:46:12.000Z,6.00249266862172
2023-05-26T07:47:14.000Z,6.012218963831886
2023-05-26T07:48:17.000Z,6.00249266862172
2023-05-26T07:49:19.000Z,6.041397849462385
2023-05-26T07:50:22.000Z,6.031671554252219
2023-05-26T07:51:24.000Z,6.041397849462385
2023-05-26T07:52:26.000Z,6.041397849462385
2023-05-26T07:53:29.000Z,6.041397849462385
2023-05-26T07:54:31.000Z,6.041397849462385
2023-05-26T07:55:34.000Z,6.00249266862172
2023-05-26T07:56:36.000Z,6.021945259042052
2023-05-26T07:57:38.000Z,6.031671554252219
2023-05-26T07:58:40.000Z,6.031671554252219
2023-05-26T07:59:43.000Z,6.041397849462385
2023-05-26T08:00:45.000Z,6.070576735092883
2023-05-26T08:01:48.000Z,6.090029325513216
2023-05-26T08:02:50.000Z,6.031671554252219
2023-05-26T08:03:52.000Z,6.041397849462385
2023-05-26T08:04:55.000Z,6.021945259042052
2023-05-26T08:05:57.000Z,6.012218963831886
2023-05-26T08:06:59.000Z,5.9830400782013875
2023-05-26T08:08:02.000Z,5.992766373411554
2023-05-26T08:09:04.000Z,5.944134897360723
2023-05-26T08:10:06.000Z,5.953861192570889
2023-05-26T08:11:08.000Z,5.934408602150556
2023-05-26T08:12:11.000Z,5.914956011730224
2023-05-26T08:13:13.000Z,5.944134897360723
2023-05-26T08:14:16.000Z,5.944134897360723
2023-05-26T08:15:18.000Z,5.944134897360723
2023-05-26T08:16:20.000Z,5.905229716520058
2023-05-26T08:17:23.000Z,5.992766373411554
2023-05-26T08:18:25.000Z,6.012218963831886
2023-05-26T08:19:27.000Z,6.031671554252219
2023-05-26T08:20:30.000Z,6.031671554252219
2023-05-26T08:21:32.000Z,6.031671554252219
2023-05-26T08:22:34.000Z,6.051124144672551
2023-05-26T08:23:36.000Z,6.031671554252219
2023-05-26T08:24:39.000Z,6.041397849462385
2023-05-26T08:25:41.000Z,6.041397849462385
2023-05-26T08:26:43.000Z,6.041397849462385
2023-05-26T08:27:46.000Z,6.041397849462385
2023-05-26T08:28:48.000Z,6.051124144672551
2023-05-26T08:29:50.000Z,6.051124144672551
2023-05-26T08:30:53.000Z,5.973313782991221
2023-05-26T08:31:55.000Z,5.992766373411554
2023-05-26T08:32:57.000Z,5.963587487781055
2023-05-26T08:34:00.000Z,5.944134897360723
2023-05-26T08:35:02.000Z,6.00249266862172
2023-05-26T08:36:04.000Z,6.00249266862172
2023-05-26T08:37:07.000Z,5.992766373411554
2023-05-26T08:38:09.000Z,5.9830400782013875
2023-05-26T08:39:11.000Z,5.973313782991221
2023-05-26T08:40:14.000Z,5.973313782991221
2023-05-26T08:41:16.000Z,5.973313782991221
2023-05-26T08:42:18.000Z,5.953861192570889
2023-05-26T08:43:21.000Z,5.905229716520058
2023-05-26T08:44:23.000Z,5.953861192570889
2023-05-26T08:45:25.000Z,5.9830400782013875
2023-05-26T08:46:27.000Z,6.00249266862172
2023-05-26T08:47:30.000Z,6.012218963831886
2023-05-26T08:48:32.000Z,6.00249266862172
2023-05-26T08:49:35.000Z,6.012218963831886
2023-05-26T08:50:37.000Z,6.012218963831886
2023-05-26T08:51:39.000Z,5.9830400782013875
2023-05-26T08:52:42.000Z,6.012218963831886
2023-05-26T08:53:44.000Z,6.031671554252219
2023-05-26T08:54:46.000Z,6.051124144672551
2023-05-26T08:55:49.000Z,6.070576735092883
2023-05-26T08:56:51.000Z,6.070576735092883
2023-05-26T08:57:53.000Z,6.021945259042052
2023-05-26T08:58:56.000Z,6.00249266862172
2023-05-26T08:59:58.000Z,5.992766373411554
2023-05-26T09:01:00.000Z,5.963587487781055
2023-05-26T09:02:03.000Z,6.041397849462385
2023-05-26T09:03:05.000Z,6.021945259042052
2023-05-26T09:04:07.000Z,6.00249266862172
2023-05-26T09:05:10.000Z,6.031671554252219
2023-05-26T09:06:12.000Z,5.992766373411554
2023-05-26T09:07:14.000Z,6.031671554252219
2023-05-26T09:08:17.000Z,6.021945259042052
2023-05-26T09:09:19.000Z,5.9830400782013875
2023-05-26T09:10:21.000Z,6.031671554252219
2023-05-26T09:11:23.000Z,6.070576735092883
2023-05-26T09:12:26.000Z,6.070576735092883
2023-05-26T09:13:28.000Z,6.070576735092883
2023-05-26T09:14:30.000Z,6.070576735092883
2023-05-26T09:15:33.000Z,6.031671554252219
2023-05-26T09:16:35.000Z,6.021945259042052
2023-05-26T09:17:37.000Z,6.041397849462385
2023-05-26T09:18:40.000Z,6.090029325513216
2023-05-26T09:19:42.000Z,6.109481915933548
2023-05-26T09:20:44.000Z,6.099755620723382
2023-05-26T09:21:47.000Z,6.099755620723382
2023-05-26T09:22:49.000Z,6.109481915933548
2023-05-26T09:23:51.000Z,6.1192082111437145
2023-05-26T09:24:54.000Z,6.128934506353881
2023-05-26T09:25:56.000Z,6.070576735092883
2023-05-26T09:26:58.000Z,6.021945259042052
2023-05-26T09:28:01.000Z,6.070576735092883
2023-05-26T09:29:03.000Z,6.070576735092883
2023-05-26T09:30:05.000Z,6.070576735092883
2023-05-26T09:31:08.000Z,6.060850439882717
2023-05-26T09:32:10.000Z,6.051124144672551
2023-05-26T09:33:12.000Z,6.031671554252219
2023-05-26T09:34:14.000Z,6.012218963831886
2023-05-26T09:35:17.000Z,6.021945259042052
2023-05-26T09:36:19.000Z,6.012218963831886
2023-05-26T09:37:22.000Z,6.041397849462385
2023-05-26T09:38:24.000Z,6.021945259042052